Time;durP1;ratioP1;P1;durP2;ratioP2;P2;SDS_P1;SDS_P2;PMS_P1;PMS_P2;Temp;Humidity;BMP_temperature;BMP_pressure;BME280_temperature;BME280_humidity;BME280_pressure;Samples;Min_cycle;Max_cycle;Signal;HPM_P1;HPM_P2
2023/03/18 00:02:26;;;;;;;14.88;8.82;;;;;;;11.56;79.75;100791.72;6159221;23;20424;-73
2023/03/18 00:04:52;;;;;;;12.80;8.90;;;;;;;11.54;79.77;100805.47;6159483;23;20022;-73
2023/03/18 00:07:19;;;;;;;10.48;8.98;;;;;;;11.52;79.77;100799.13;6158856;23;20109;-73
2023/03/18 00:09:46;;;;;;;13.10;8.88;;;;;;;11.49;79.92;100800.75;6132771;23;20022;-73
2023/03/18 00:12:12;;;;;;;16.67;8.52;;;;;;;11.46;79.65;100801.63;6158830;23;20022;-73
2023/03/18 00:14:39;;;;;;;15.93;9.40;;;;;;;11.42;80.16;100805.63;6159801;23;20025;-75
2023/03/18 00:17:06;;;;;;;12.35;8.68;;;;;;;11.38;80.31;100807.69;6159178;23;20021;-73
2023/03/18 00:19:33;;;;;;;13.32;8.48;;;;;;;11.34;80.33;100807.81;6159244;23;20021;-73
2023/03/18 00:21:59;;;;;;;11.50;9.20;;;;;;;11.28;80.25;100807.66;6158866;23;20022;-73
2023/03/18 00:24:29;;;;;;;11.32;10.02;;;;;;;11.24;80.87;100814.31;6158461;23;20014;-74
2023/03/18 00:26:56;;;;;;;16.23;9.57;;;;;;;11.17;81.22;100814.63;6159207;23;20028;-74
2023/03/18 00:29:23;;;;;;;13.00;9.50;;;;;;;11.12;81.81;100817.88;6132414;23;20018;-74
2023/03/18 00:31:50;;;;;;;11.73;8.88;;;;;;;11.05;81.70;100813.56;6159305;23;20022;-74
2023/03/18 00:34:19;;;;;;;10.15;9.05;;;;;;;11.00;82.63;100816.78;6158840;23;20475;-74
2023/03/18 00:36:49;;;;;;;13.05;9.32;;;;;;;10.92;82.25;100807.59;6132735;23;20022;-74
2023/03/18 00:39:17;;;;;;;11.10;9.10;;;;;;;10.86;82.25;100815.41;6130974;23;20022;-74
2023/03/18 00:41:44;;;;;;;11.85;9.70;;;;;;;10.82;82.28;100824.72;6132839;23;20032;-74
2023/03/18 00:44:13;;;;;;;13.43;9.52;;;;;;;10.79;83.09;100829.00;6107810;23;20028;-75
2023/03/18 00:46:40;;;;;;;12.77;9.68;;;;;;;10.76;83.56;100827.22;6158628;23;20025;-74
2023/03/18 00:49:07;;;;;;;13.45;9.93;;;;;;;10.73;83.62;100825.44;6132253;23;20014;-74
2023/03/18 00:51:36;;;;;;;14.88;10.23;;;;;;;10.74;83.71;100818.19;6159212;23;20017;-74
2023/03/18 00:54:06;;;;;;;15.40;10.13;;;;;;;10.73;83.69;100814.78;6158186;23;20356;-73
2023/03/18 00:56:36;;;;;;;13.88;10.10;;;;;;;10.73;84.05;100817.44;6158821;23;20014;-73
2023/03/18 00:59:04;;;;;;;14.98;9.85;;;;;;;10.71;83.98;100811.06;6132322;23;20457;-74
2023/03/18 01:01:32;;;;;;;13.23;9.80;;;;;;;10.71;84.55;100813.75;6132095;23;20028;-74
2023/03/18 01:04:00;;;;;;;12.40;9.68;;;;;;;10.71;83.99;100813.75;6158753;23;20422;-74
2023/03/18 01:06:29;;;;;;;15.73;10.15;;;;;;;10.70;84.55;100810.34;6132881;23;20018;-74
2023/03/18 01:08:57;;;;;;;12.23;9.52;;;;;;;10.69;84.14;100801.59;6157988;23;20449;-74
2023/03/18 01:11:24;;;;;;;16.73;10.15;;;;;;;10.67;84.53;100803.97;6132072;23;20034;-74
2023/03/18 01:13:52;;;;;;;13.77;9.85;;;;;;;10.66;85.00;100807.81;6132513;23;20021;-74
2023/03/18 01:16:20;;;;;;;14.65;9.73;;;;;;;10.66;84.97;100804.41;6132492;23;20022;-74
2023/03/18 01:18:47;;;;;;;12.32;9.95;;;;;;;10.64;85.25;100809.41;6133631;23;20437;-74
2023/03/18 01:21:14;;;;;;;12.57;10.38;;;;;;;10.63;85.47;100807.94;6132505;23;20030;-74
2023/03/18 01:23:47;;;;;;;19.38;10.27;;;;;;;10.63;85.41;100823.91;6133811;23;20394;-74
2023/03/18 01:26:13;;;;;;;13.80;10.30;;;;;;;10.60;85.46;100820.19;6132919;23;20445;-74
2023/03/18 01:28:42;;;;;;;13.38;10.43;;;;;;;10.60;85.67;100819.44;6109542;23;20369;-74
2023/03/18 01:31:09;;;;;;;15.43;10.70;;;;;;;10.59;85.50;100817.97;6132848;23;20105;-74
2023/03/18 01:33:35;;;;;;;13.35;10.15;;;;;;;10.57;85.54;100820.31;6160293;23;20401;-74
2023/03/18 01:36:03;;;;;;;14.13;10.60;;;;;;;10.56;86.07;100821.50;6132779;23;20034;-74
2023/03/18 01:38:31;;;;;;;15.10;11.60;;;;;;;10.55;86.02;100820.03;6133051;23;20507;-74
2023/03/18 01:41:07;;;;;;;16.33;10.65;;;;;;;10.52;86.46;100813.66;6133068;23;20050;-74
2023/03/18 01:43:39;;;;;;;13.30;10.38;;;;;;;10.51;86.55;100816.75;6133521;23;20452;-74
2023/03/18 01:46:45;;;;;;;14.02;10.32;;;;;;;10.51;85.86;100819.41;6133169;23;20460;-73
2023/03/18 01:49:17;;;;;;;14.50;10.43;;;;;;;10.48;86.60;100821.03;6011195;23;20026;-74
2023/03/18 01:51:49;;;;;;;15.18;11.85;;;;;;;10.47;87.03;100818.78;5987820;23;20028;-75
2023/03/18 01:54:17;;;;;;;;;;;;;;;10.47;85.89;100808.16;5988314;23;20029;-75
2023/03/18 01:56:47;;;;;;;26.58;12.52;;;;;;;10.44;nan;100811.69;5988238;23;20386;-75
2023/03/18 01:59:14;;;;;;;15.63;11.55;;;;;;;10.44;87.10;100814.34;5987015;23;20026;-75
2023/03/18 02:01:49;;;;;;;16.63;11.77;;;;;;;10.43;87.08;100824.25;5988031;23;20032;-75
2023/03/18 02:04:17;;;;;;;15.93;12.40;;;;;;;10.41;87.16;100815.22;5987751;23;20644;-75
2023/03/18 02:06:44;;;;;;;16.60;11.23;;;;;;;10.39;87.69;100815.66;5987686;23;20021;-76
2023/03/18 02:09:11;;;;;;;14.48;11.63;;;;;;;10.39;87.19;100813.00;5987355;23;20028;-75
2023/03/18 02:11:42;;;;;;;16.75;12.82;;;;;;;10.39;87.57;100812.28;5987932;23;20065;-75
2023/03/18 02:14:12;;;;;;;16.17;11.25;;;;;;;10.35;87.41;100818.47;6011444;23;20406;-75
2023/03/18 02:17:00;;;;;;;14.30;10.90;;;;;;;10.37;87.61;100825.25;6011641;23;20455;-75
2023/03/18 02:19:59;;;;;;;14.98;11.77;;;;;;;10.34;87.86;100824.97;5987072;23;20051;-75
2023/03/18 02:22:33;;;;;;;18.15;12.10;;;;;;;10.34;88.05;100827.63;5953738;23;20148;-75
2023/03/18 02:25:15;;;;;;;17.27;12.25;;;;;;;10.34;88.09;100829.53;6044535;23;20019;-75
2023/03/18 02:27:49;;;;;;;18.33;12.63;;;;;;;10.34;88.08;100832.19;6069296;23;20041;-75
2023/03/18 02:30:27;;;;;;;15.18;11.75;;;;;;;10.33;88.22;100834.13;6044036;23;20448;-75
2023/03/18 02:32:57;;;;;;;19.00;12.40;;;;;;;10.32;88.46;100832.63;6044938;23;20465;-75
2023/03/18 02:35:25;;;;;;;21.10;12.48;;;;;;;10.30;88.71;100824.34;6043804;23;20106;-74
2023/03/18 02:37:52;;;;;;;20.00;12.52;;;;;;;10.29;88.41;100828.19;6044639;23;20398;-75
2023/03/18 02:40:32;;;;;;;16.88;13.35;;;;;;;10.27;88.27;100832.44;6044161;23;20051;-75
2023/03/18 02:43:30;;;;;;;20.52;13.30;;;;;;;10.24;88.53;100828.72;6044640;23;20031;-75
2023/03/18 02:46:05;;;;;;;18.70;12.68;;;;;;;10.22;88.94;100833.75;6044084;23;20029;-75
2023/03/18 02:48:38;;;;;;;21.02;12.98;;;;;;;10.18;89.55;100838.41;6068432;23;20104;-75
2023/03/18 02:51:06;;;;;;;17.65;13.25;;;;;;;10.19;89.35;100834.63;6044495;23;20615;-75
2023/03/18 02:53:33;;;;;;;22.42;13.52;;;;;;;10.20;89.41;100830.78;6069125;23;20419;-74
2023/03/18 02:56:00;;;;;;;21.77;13.02;;;;;;;10.20;89.80;100833.44;6044501;23;20496;-75
2023/03/18 02:58:28;;;;;;;18.67;13.27;;;;;;;10.19;90.04;100831.94;6102608;23;20937;-75
2023/03/18 03:00:57;;;;;;;21.85;13.65;;;;;;;10.20;89.21;100832.69;6132729;23;20014;-74
2023/03/18 03:03:26;;;;;;;17.75;13.05;;;;;;;10.18;89.31;100835.00;6132354;23;20026;-75
2023/03/18 03:05:53;;;;;;;21.08;13.27;;;;;;;10.18;89.40;100835.00;6133038;23;20041;-75
2023/03/18 03:08:22;;;;;;;17.95;14.35;;;;;;;10.16;89.46;100835.44;6132959;23;20057;-75
2023/03/18 03:10:51;;;;;;;21.35;14.32;;;;;;;10.16;90.17;100832.03;6133507;23;20460;-73
2023/03/18 03:13:19;;;;;;;19.35;14.60;;;;;;;10.15;90.20;100838.53;6132515;23;20033;-74
2023/03/18 03:15:47;;;;;;;20.05;13.98;;;;;;;10.14;90.30;100842.38;6108932;23;20018;-73
2023/03/18 03:18:14;;;;;;;20.95;14.90;;;;;;;10.12;90.44;100837.50;6131882;23;20025;-73
2023/03/18 03:20:42;;;;;;;22.25;14.73;;;;;;;10.12;90.58;100848.13;6133076;23;20449;-74
2023/03/18 03:23:12;;;;;;;21.52;15.23;;;;;;;10.12;90.64;100848.13;6158928;23;20026;-74
2023/03/18 03:25:39;;;;;;;21.75;14.63;;;;;;;10.10;91.09;100850.47;6133024;23;20021;-74
2023/03/18 03:28:07;;;;;;;21.08;14.32;;;;;;;10.09;91.31;100849.00;6159271;23;20014;-74
2023/03/18 03:30:35;;;;;;;18.83;14.38;;;;;;;10.08;91.24;100855.47;6132766;23;20527;-74
2023/03/18 03:33:03;;;;;;;20.75;14.82;;;;;;;10.06;91.44;100857.84;6132102;23;20022;-74
2023/03/18 03:35:30;;;;;;;23.08;14.52;;;;;;;10.07;91.47;100861.25;6159322;23;20436;-74
2023/03/18 03:37:57;;;;;;;17.83;14.55;;;;;;;10.04;91.38;100852.19;6132325;23;20516;-74
2023/03/18 03:40:24;;;;;;;19.55;13.73;;;;;;;10.06;91.57;100860.50;6159248;23;20182;-74
2023/03/18 03:42:51;;;;;;;19.00;14.10;;;;;;;10.04;91.38;100858.25;6159672;23;20056;-73
2023/03/18 03:45:18;;;;;;;19.73;14.25;;;;;;;10.05;91.42;100866.97;6132373;23;20018;-74
2023/03/18 03:47:46;;;;;;;19.70;14.85;;;;;;;10.06;91.26;100865.06;6132247;23;20055;-74
2023/03/18 03:50:15;;;;;;;20.15;14.25;;;;;;;10.04;91.50;100874.22;6132114;23;20052;-74
2023/03/18 03:52:43;;;;;;;19.23;13.82;;;;;;;10.04;92.04;100865.50;6159367;23;20445;-74
2023/03/18 03:55:11;;;;;;;23.98;14.18;;;;;;;10.03;91.32;100866.69;6132204;23;20042;-74
2023/03/18 03:57:39;;;;;;;16.08;13.38;;;;;;;10.04;91.94;100865.50;6132924;23;20024;-74
2023/03/18 04:00:12;;;;;;;24.52;14.02;;;;;;;10.03;91.94;100875.41;6158850;23;20022;-75
2023/03/18 04:02:46;;;;;;;19.50;13.60;;;;;;;10.03;91.74;100870.06;6132323;23;20022;-74
2023/03/18 04:05:16;;;;;;;21.38;14.13;;;;;;;10.03;92.18;100872.00;6132049;23;20022;-74
2023/03/18 04:07:44;;;;;;;19.08;13.88;;;;;;;10.03;92.08;100874.66;6132799;23;20022;-74
2023/03/18 04:10:13;;;;;;;23.85;14.43;;;;;;;10.02;92.30;100873.16;6132037;23;20907;-74
2023/03/18 04:12:41;;;;;;;16.17;12.63;;;;;;;10.01;92.33;100875.09;6159349;23;20022;-74
2023/03/18 04:15:11;;;;;;;20.60;13.90;;;;;;;10.02;92.50;100873.16;6132577;23;20460;-74
2023/03/18 04:17:38;;;;;;;19.88;13.15;;;;;;;10.03;92.58;100880.72;6158831;23;20014;-74
2023/03/18 04:20:05;;;;;;;22.42;13.60;;;;;;;10.02;92.57;100881.88;6132569;23;20014;-75
2023/03/18 04:22:32;;;;;;;17.77;13.43;;;;;;;10.03;92.76;100880.72;6132177;23;20108;-74
2023/03/18 04:25:01;;;;;;;16.08;13.43;;;;;;;10.04;93.03;100876.88;6132577;23;20452;-74
2023/03/18 04:27:28;;;;;;;20.67;13.50;;;;;;;10.01;93.97;100879.66;6159250;23;20529;-74
2023/03/18 04:29:57;;;;;;;21.83;13.80;;;;;;;10.03;93.95;100890.59;6131514;23;20022;-74
2023/03/18 04:32:32;;;;;;;19.38;13.32;;;;;;;10.01;94.24;100887.63;6132267;23;20022;-74
2023/03/18 04:34:59;;;;;;;18.63;13.98;;;;;;;9.99;94.64;100884.69;6108295;23;20018;-74
2023/03/18 04:37:26;;;;;;;18.48;13.90;;;;;;;9.98;95.16;100875.22;6158900;23;20066;-74
2023/03/18 04:39:55;;;;;;;23.80;15.25;;;;;;;9.97;95.34;100879.06;6132702;23;20045;-74
2023/03/18 04:42:22;;;;;;;20.45;13.93;;;;;;;9.95;95.39;100874.19;6132330;23;20030;-74
2023/03/18 04:44:48;;;;;;;20.60;13.60;;;;;;;9.94;95.48;100871.94;6132434;23;20018;-74
2023/03/18 04:47:15;;;;;;;21.20;13.32;;;;;;;9.94;95.65;100877.25;6131794;23;20018;-74
2023/03/18 04:49:42;;;;;;;19.95;13.38;;;;;;;9.92;96.26;100875.03;6132103;23;20018;-74
2023/03/18 04:52:11;;;;;;;21.40;14.15;;;;;;;9.91;96.29;100876.22;6156239;23;20022;-74
2023/03/18 04:54:38;;;;;;;18.20;13.40;;;;;;;9.91;96.82;100878.88;6132576;23;20073;-75
2023/03/18 04:57:06;;;;;;;16.48;13.25;;;;;;;9.91;96.53;100884.19;6158762;23;20017;-74
2023/03/18 04:59:37;;;;;;;22.55;13.80;;;;;;;9.91;97.26;100889.50;6131985;23;20051;-74
2023/03/18 05:02:05;;;;;;;17.20;13.45;;;;;;;9.89;97.38;100881.22;6132134;23;20653;-74
2023/03/18 05:04:33;;;;;;;17.33;13.50;;;;;;;9.89;97.54;100891.09;6159197;23;20018;-74
2023/03/18 05:07:01;;;;;;;21.15;13.38;;;;;;;9.87;97.66;100891.53;6132119;23;20507;-74
2023/03/18 05:09:33;;;;;;;21.92;12.73;;;;;;;9.87;97.80;100888.13;6132310;23;20334;-74
2023/03/18 05:12:00;;;;;;;19.50;13.27;;;;;;;9.85;98.42;100893.13;6132017;23;20030;-74
2023/03/18 05:14:33;;;;;;;18.60;12.60;;;;;;;9.87;98.47;100893.44;6131813;23;20030;-74
2023/03/18 05:17:02;;;;;;;16.95;13.00;;;;;;;9.86;98.49;100905.25;6132166;23;20451;-73
2023/03/18 05:19:32;;;;;;;17.33;12.63;;;;;;;9.85;98.80;100901.13;6108274;23;20138;-73
2023/03/18 05:22:07;;;;;;;17.77;13.27;;;;;;;9.84;98.25;100900.38;6132294;23;20254;-73
2023/03/18 05:24:34;;;;;;;24.30;13.07;;;;;;;9.84;98.76;100904.94;6158868;23;20014;-73
2023/03/18 05:27:02;;;;;;;19.23;13.80;;;;;;;9.81;99.63;100911.13;6131808;23;20018;-74
2023/03/18 05:29:37;;;;;;;17.67;12.68;;;;;;;9.81;99.16;100922.50;6131769;23;20018;-74
2023/03/18 05:32:13;;;;;;;22.42;13.50;;;;;;;9.79;99.58;100919.53;6131496;23;20097;-74
2023/03/18 05:34:40;;;;;;;17.83;13.13;;;;;;;9.79;100.00;100922.19;6132456;23;20025;-74
2023/03/18 05:37:10;;;;;;;19.50;13.13;;;;;;;9.80;99.75;100926.31;6131790;23;20022;-74
2023/03/18 05:39:42;;;;;;;22.02;13.43;;;;;;;9.80;99.89;100926.31;6132198;23;20022;-74
2023/03/18 05:42:14;;;;;;;18.43;13.77;;;;;;;9.81;99.86;100919.09;6131564;23;20020;-74
2023/03/18 05:44:41;;;;;;;17.95;12.57;;;;;;;9.82;99.98;100928.56;6158381;23;20018;-74
2023/03/18 05:47:09;;;;;;;17.88;12.45;;;;;;;9.81;100.00;100930.47;6130997;23;20098;-74
2023/03/18 05:49:47;;;;;;;23.92;13.05;;;;;;;9.81;100.00;100932.38;6131818;23;20395;-74
2023/03/18 05:52:19;;;;;;;23.08;13.40;;;;;;;9.80;100.00;100938.88;6131270;23;20468;-74
2023/03/18 05:54:49;;;;;;;17.35;13.35;;;;;;;9.81;100.00;100932.38;6131918;23;20074;-74
2023/03/18 05:57:21;;;;;;;25.13;13.32;;;;;;;9.81;100.00;100927.81;6157427;23;20019;-74
2023/03/18 05:59:51;;;;;;;21.35;13.15;;;;;;;9.82;100.00;100928.56;6131572;23;20018;-74
2023/03/18 06:02:18;;;;;;;19.88;12.52;;;;;;;9.83;100.00;100932.69;6107408;23;20531;-74
2023/03/18 06:04:44;;;;;;;20.92;12.48;;;;;;;9.82;100.00;100937.28;6133829;23;20014;-74
2023/03/18 06:07:12;;;;;;;22.33;13.85;;;;;;;9.83;100.00;100946.00;6159216;23;20405;-74
2023/03/18 06:09:39;;;;;;;20.13;13.15;;;;;;;9.83;100.00;100940.69;6133445;23;20351;-74
2023/03/18 06:12:06;;;;;;;18.65;13.10;;;;;;;9.84;100.00;100950.16;6132204;23;20030;-74
2023/03/18 06:14:32;;;;;;;19.45;12.68;;;;;;;9.85;100.00;100943.66;6133037;23;20026;-74
2023/03/18 06:17:01;;;;;;;23.65;13.13;;;;;;;9.87;100.00;100947.38;6132842;23;20391;-74
2023/03/18 06:19:29;;;;;;;18.67;12.52;;;;;;;9.87;100.00;100949.28;6133153;23;20085;-74
2023/03/18 06:21:56;;;;;;;18.02;13.15;;;;;;;9.87;100.00;100947.38;6133193;23;20396;-75
2023/03/18 06:24:23;;;;;;;20.75;12.73;;;;;;;9.87;100.00;100938.66;6159342;23;20422;-75
2023/03/18 06:26:50;;;;;;;19.05;12.75;;;;;;;9.88;100.00;100958.75;6132700;23;20022;-75
2023/03/18 06:29:18;;;;;;;16.50;12.38;;;;;;;9.89;100.00;100952.25;6132405;23;20468;-75
2023/03/18 06:31:45;;;;;;;21.00;13.02;;;;;;;9.91;100.00;100955.25;6158784;23;20105;-75
2023/03/18 06:34:18;;;;;;;19.98;12.90;;;;;;;9.92;100.00;100964.72;6132797;23;20491;-75
2023/03/18 06:36:44;;;;;;;19.55;13.02;;;;;;;9.93;100.00;100977.56;6133752;23;20416;-75
2023/03/18 06:39:16;;;;;;;14.98;12.52;;;;;;;9.96;100.00;100989.28;6132726;23;20515;-75
2023/03/18 06:41:44;;;;;;;21.20;12.65;;;;;;;9.96;100.00;100986.63;6132541;23;20161;-75
2023/03/18 06:44:30;;;;;;;20.05;13.02;;;;;;;9.98;100.00;100984.28;6133005;23;20024;-75
2023/03/18 06:47:04;;;;;;;23.52;12.45;;;;;;;9.99;100.00;100985.75;6131571;23;20071;-75
2023/03/18 06:49:34;;;;;;;17.17;12.98;;;;;;;10.01;100.00;100983.38;6131326;23;20541;-77
2023/03/18 06:52:08;;;;;;;17.02;12.27;;;;;;;10.03;100.00;100983.69;6108429;23;20439;-76
2023/03/18 06:54:35;;;;;;;17.95;12.43;;;;;;;10.05;100.00;100984.00;6131801;23;20029;-75
2023/03/18 06:57:02;;;;;;;22.02;12.57;;;;;;;10.06;100.00;100982.84;6133735;23;20044;-76
2023/03/18 06:59:29;;;;;;;16.48;12.55;;;;;;;10.10;100.00;100985.38;6133910;23;20054;-75
2023/03/18 07:01:57;;;;;;;18.85;12.88;;;;;;;10.14;100.00;101005.38;6133919;23;20089;-74
2023/03/18 07:04:24;;;;;;;20.83;12.40;;;;;;;10.17;100.00;100991.22;6160531;23;20041;-74
2023/03/18 07:06:52;;;;;;;18.23;13.20;;;;;;;10.20;100.00;100998.38;6158906;23;20491;-75
2023/03/18 07:09:19;;;;;;;26.15;13.80;;;;;;;10.24;100.00;100999.00;6159506;23;20021;-75
2023/03/18 07:11:52;;;;;;;;;;;;;;;10.28;100.00;101001.56;6134284;23;20543;-75
2023/03/18 07:14:20;;;;;;;22.05;12.23;;;;;;;10.28;100.00;101010.28;6132523;23;19920;-78
2023/03/18 07:16:47;;;;;;;20.65;13.35;;;;;;;10.33;100.00;101007.09;6133482;23;20025;-77
2023/03/18 07:19:16;;;;;;;22.63;12.73;;;;;;;10.39;100.00;101012.59;6133007;23;20483;-77
2023/03/18 07:21:44;;;;;;;19.13;12.82;;;;;;;10.41;100.00;101017.47;6133430;23;20435;-77
2023/03/18 07:24:13;;;;;;;18.30;14.00;;;;;;;10.42;100.00;101013.63;6107929;23;20049;-76
2023/03/18 07:26:40;;;;;;;21.17;14.23;;;;;;;10.41;100.00;101015.53;6160217;23;20361;-77
2023/03/18 07:29:09;;;;;;;25.30;14.20;;;;;;;10.42;100.00;101022.34;6134046;23;20022;-76
2023/03/18 07:31:37;;;;;;;22.98;13.18;;;;;;;10.44;100.00;101022.69;6133272;23;20033;-75
2023/03/18 07:34:03;;;;;;;22.02;14.43;;;;;;;10.53;100.00;101027.34;6159843;23;20014;-75
2023/03/18 07:36:30;;;;;;;21.23;14.10;;;;;;;10.70;100.00;101031.31;6159790;23;20014;-75
2023/03/18 07:38:58;;;;;;;22.98;14.77;;;;;;;10.89;100.00;101035.59;6159272;23;20092;-75
2023/03/18 07:41:25;;;;;;;24.75;13.95;;;;;;;11.03;100.00;101029.03;6159425;23;20018;-75
2023/03/18 07:43:51;;;;;;;23.40;13.82;;;;;;;11.11;99.85;101038.25;6159871;23;20014;-75
2023/03/18 07:46:18;;;;;;;20.98;13.95;;;;;;;11.18;99.54;101035.34;6158895;23;20014;-75
2023/03/18 07:48:45;;;;;;;22.60;14.25;;;;;;;11.28;99.29;101041.44;6159649;23;20533;-76
2023/03/18 07:51:12;;;;;;;18.13;14.55;;;;;;;11.33;98.71;101040.88;6159613;23;20081;-76
2023/03/18 07:53:38;;;;;;;23.27;14.35;;;;;;;11.32;97.99;101040.13;6159319;23;20448;-75
2023/03/18 07:56:06;;;;;;;18.63;14.75;;;;;;;11.27;97.62;101047.94;6159807;23;20398;-75
2023/03/18 07:58:33;;;;;;;24.52;15.88;;;;;;;11.28;97.94;101054.75;6160029;23;20017;-75
2023/03/18 08:01:00;;;;;;;23.00;15.80;;;;;;;11.35;97.41;101055.25;6159684;23;20365;-75
2023/03/18 08:03:27;;;;;;;20.40;16.08;;;;;;;11.39;97.35;101044.47;6159438;23;20018;-75
2023/03/18 08:05:54;;;;;;;24.25;16.23;;;;;;;11.53;96.98;101046.63;6159823;23;20078;-75
2023/03/18 08:08:21;;;;;;;21.80;16.13;;;;;;;11.64;96.40;101046.94;6158719;23;20022;-76
2023/03/18 08:10:48;;;;;;;25.30;17.38;;;;;;;11.82;95.57;101056.22;6159804;23;20509;-75
2023/03/18 08:13:14;;;;;;;27.20;16.85;;;;;;;11.97;94.51;101041.91;6159387;23;20021;-75
2023/03/18 08:15:41;;;;;;;21.92;16.30;;;;;;;12.11;93.71;101043.25;6159623;23;20021;-77
2023/03/18 08:18:08;;;;;;;23.08;15.95;;;;;;;12.27;93.10;101048.31;6159755;23;20014;-75
2023/03/18 08:20:34;;;;;;;20.65;14.57;;;;;;;12.42;91.55;101053.06;6159996;23;20022;-75
2023/03/18 08:23:02;;;;;;;22.05;15.52;;;;;;;12.53;90.73;101051.44;6159211;23;20014;-76
2023/03/18 08:25:28;;;;;;;22.00;14.55;;;;;;;12.61;90.82;101047.31;6132486;23;20077;-74
2023/03/18 08:27:55;;;;;;;21.42;14.68;;;;;;;12.80;90.00;101056.03;6159643;23;20025;-74
2023/03/18 08:30:27;;;;;;;16.90;13.50;;;;;;;12.88;88.80;101045.78;6132932;23;20054;-75
2023/03/18 08:32:54;;;;;;;16.63;12.60;;;;;;;12.99;88.04;101044.16;6159872;23;20024;-75
2023/03/18 08:35:22;;;;;;;14.43;12.38;;;;;;;13.07;87.95;101044.59;6159283;23;20025;-75
2023/03/18 08:37:50;;;;;;;15.48;11.95;;;;;;;13.17;86.70;101042.66;6159019;23;20483;-74
2023/03/18 08:40:17;;;;;;;14.32;11.85;;;;;;;13.16;85.81;101044.59;6159288;23;20444;-75
2023/03/18 08:42:44;;;;;;;14.55;11.63;;;;;;;13.14;85.97;101049.63;6159865;23;20017;-75
2023/03/18 08:45:11;;;;;;;16.10;11.75;;;;;;;13.26;84.86;101045.28;6159517;23;20097;-75
2023/03/18 08:47:38;;;;;;;17.02;11.63;;;;;;;13.27;84.84;101044.09;6159490;23;20056;-75
2023/03/18 08:50:05;;;;;;;14.93;12.35;;;;;;;13.24;84.69;101043.06;6159545;23;20022;-75
2023/03/18 08:52:31;;;;;;;15.20;12.32;;;;;;;13.26;84.93;101042.63;6132589;23;20452;-75
2023/03/18 08:54:58;;;;;;;13.70;11.98;;;;;;;13.33;84.07;101045.72;6159710;23;20021;-75
2023/03/18 08:57:26;;;;;;;17.65;12.30;;;;;;;13.25;84.24;101055.25;6159145;23;20436;-75
2023/03/18 08:59:53;;;;;;;20.35;13.50;;;;;;;13.40;84.73;101051.94;6159276;23;20021;-75
2023/03/18 09:02:20;;;;;;;17.70;13.07;;;;;;;13.52;83.68;101049.09;6159334;23;20070;-74
2023/03/18 09:04:47;;;;;;;18.08;13.63;;;;;;;13.64;83.29;101047.38;6159603;23;20018;-75
2023/03/18 09:07:14;;;;;;;19.48;12.60;;;;;;;13.88;83.05;101048.16;6132571;23;20025;-78
2023/03/18 09:09:43;;;;;;;16.15;13.02;;;;;;;14.07;81.68;101050.72;6159120;23;20022;-76
2023/03/18 09:12:11;;;;;;;15.98;13.07;;;;;;;14.06;81.13;101054.59;6158999;23;20049;-76
2023/03/18 09:14:39;;;;;;;15.23;12.60;;;;;;;13.77;80.89;101055.22;6133477;23;20014;-76
2023/03/18 09:17:05;;;;;;;15.75;12.85;;;;;;;13.58;81.56;101060.66;6159449;23;20476;-76
2023/03/18 09:19:32;;;;;;;13.63;11.95;;;;;;;13.37;82.10;101056.25;6158187;23;20025;-76
2023/03/18 09:21:58;;;;;;;17.27;13.73;;;;;;;13.34;83.08;101060.56;6157942;23;20422;-76
2023/03/18 09:24:25;;;;;;;21.20;13.07;;;;;;;13.46;83.04;101071.53;6159222;23;20015;-76
2023/03/18 09:26:52;;;;;;;16.13;12.60;;;;;;;13.44;83.02;101071.25;6133349;23;20519;-75
2023/03/18 09:29:18;;;;;;;15.93;12.20;;;;;;;13.54;83.41;101070.78;6159194;23;20018;-76
2023/03/18 09:31:45;;;;;;;14.15;11.90;;;;;;;13.43;82.71;101072.44;6159378;23;20022;-76
2023/03/18 09:34:13;;;;;;;15.93;12.77;;;;;;;13.27;83.03;101079.59;6159069;23;20018;-76
2023/03/18 09:36:41;;;;;;;14.15;12.23;;;;;;;13.38;83.94;101079.13;6159849;23;20471;-76
2023/03/18 09:39:08;;;;;;;14.80;12.38;;;;;;;13.71;82.39;101086.44;6134104;23;20029;-76
2023/03/18 09:41:50;;;;;;;19.35;12.32;;;;;;;13.83;82.54;101085.50;6160407;23;20471;-76
2023/03/18 09:44:30;;;;;;;19.40;12.52;;;;;;;13.84;81.44;101078.97;6160214;23;20109;-76
2023/03/18 09:47:22;;;;;;;13.82;11.73;;;;;;;13.81;81.80;101087.91;6160361;23;20077;-76
2023/03/18 09:50:07;;;;;;;;;;;;;;;13.96;82.03;101086.78;6160656;23;20482;-76
2023/03/18 09:52:38;;;;;;;11.65;10.45;;;;;;;14.11;80.85;101091.44;6160715;23;19920;-75
2023/03/18 09:55:20;;;;;;;13.40;12.00;;;;;;;14.13;80.25;101089.81;6160640;23;20014;-76
2023/03/18 09:57:50;;;;;;;14.18;11.82;;;;;;;14.17;80.00;101090.38;6160703;23;20014;-75
2023/03/18 10:00:28;;;;;;;13.82;10.65;;;;;;;14.30;79.71;101098.19;6160304;23;20101;-76
2023/03/18 10:03:04;;;;;;;13.00;10.85;;;;;;;14.46;78.70;101097.06;6160818;23;20014;-75
2023/03/18 10:05:47;;;;;;;13.65;10.13;;;;;;;14.57;78.15;101097.28;6133812;23;20014;-75
2023/03/18 10:08:52;;;;;;;15.23;10.48;;;;;;;14.67;77.79;101099.44;6160617;23;20089;-75
2023/03/18 10:11:29;;;;;;;13.77;9.73;;;;;;;14.72;77.51;101098.06;6160587;23;20044;-77
2023/03/18 10:14:00;;;;;;;10.93;9.68;;;;;;;14.71;77.13;101098.53;6160756;23;20026;-75
2023/03/18 10:16:31;;;;;;;12.82;9.93;;;;;;;14.80;76.26;101101.84;6160527;23;20018;-75
2023/03/18 10:18:58;;;;;;;12.57;9.35;;;;;;;14.98;75.67;101101.72;6160086;23;20606;-76
2023/03/18 10:21:53;;;;;;;11.43;8.93;;;;;;;15.17;75.48;101102.28;6159928;23;20029;-76
2023/03/18 10:24:37;;;;;;;9.82;8.85;;;;;;;15.08;74.24;101098.94;6160321;23;20081;-73
2023/03/18 10:27:23;;;;;;;9.85;8.85;;;;;;;14.89;75.64;101104.47;6134480;23;20014;-76
2023/03/18 10:30:05;;;;;;;9.38;8.48;;;;;;;14.89;75.14;101104.47;6134196;23;20018;-76
2023/03/18 10:32:41;;;;;;;12.07;8.60;;;;;;;14.94;74.85;101100.41;6159603;23;20033;-74
2023/03/18 10:35:44;;;;;;;11.57;9.32;;;;;;;15.09;74.97;101095.06;6160339;23;20018;-75
2023/03/18 10:38:22;;;;;;;9.35;8.40;;;;;;;15.14;74.28;101094.44;6160133;23;20014;-75
2023/03/18 10:40:50;;;;;;;10.90;8.32;;;;;;;15.21;73.75;101097.47;6160569;23;20018;-75
2023/03/18 10:43:29;;;;;;;9.95;6.72;;;;;;;15.30;72.86;101094.69;6133653;23;20105;-75
2023/03/18 10:46:02;;;;;;;9.15;6.30;;;;;;;15.37;71.62;101096.25;6133929;23;20018;-76
2023/03/18 10:48:35;;;;;;;8.23;6.50;;;;;;;15.37;71.61;101093.56;6159053;23;20061;-76
2023/03/18 10:51:06;;;;;;;9.20;7.20;;;;;;;15.31;72.32;101090.06;6160720;23;20014;-74
2023/03/18 10:53:42;;;;;;;9.27;7.18;;;;;;;15.32;73.17;101086.19;6160061;23;20837;-74
2023/03/18 10:56:11;;;;;;;7.93;7.13;;;;;;;15.39;71.56;101080.44;6160221;23;20018;-74
2023/03/18 10:58:40;;;;;;;8.40;6.68;;;;;;;15.52;72.01;101086.25;6160367;23;20384;-75
2023/03/18 11:01:08;;;;;;;6.57;6.00;;;;;;;15.67;70.36;101073.56;6160572;23;20021;-76
2023/03/18 11:03:42;;;;;;;6.38;5.68;;;;;;;15.83;70.02;101085.03;6159757;23;20022;-75
2023/03/18 11:06:20;;;;;;;8.48;5.97;;;;;;;15.82;69.58;101086.97;6160460;23;20460;-75
2023/03/18 11:08:48;;;;;;;11.15;6.38;;;;;;;15.87;70.23;101090.94;6134731;23;20441;-75
2023/03/18 11:11:16;;;;;;;8.00;6.25;;;;;;;15.86;69.11;101086.78;6134336;23;20014;-76
2023/03/18 11:13:48;;;;;;;6.50;5.75;;;;;;;15.84;69.08;101084.56;6160293;23;20068;-75
2023/03/18 11:16:28;;;;;;;6.55;5.80;;;;;;;15.80;68.92;101086.69;6160005;23;20014;-75
2023/03/18 11:18:56;;;;;;;7.63;6.30;;;;;;;15.78;68.43;101091.03;6134469;23;20135;-75
2023/03/18 11:21:24;;;;;;;10.38;7.03;;;;;;;15.68;69.25;101085.78;6160165;23;20059;-75
2023/03/18 11:24:09;;;;;;;7.35;6.70;;;;;;;15.70;69.95;101089.94;6111715;23;20018;-78
2023/03/18 11:26:55;;;;;;;7.75;6.22;;;;;;;15.75;69.81;101087.34;6160577;23;20018;-78